Terminal Aerodrome Forecast
Issued by NWS Sterling, VA

Home | Current Version | Previous Version | Text Only | Print | Product List | Glossary On
Versions: 1 2 3 4 5 6 7 8 9 10 11 12 13 14 15 16 17 18 19 20 21 22 23
000
FTUS41 KLWX 252300
TAFBWI
TAF
KBWI 252320Z 2600/2706 00000KT P6SM BKN070
     FM260200 06006KT 3SM -RA OVC050
     FM260500 07009KT 2SM -RASN OVC025
     FM260800 07010KT 1SM -SNRA OVC020
     FM261100 07011G19KT 1SM -SN OVC010
     FM261700 05010KT 2SM -RASN OVC008
     FM262000 04010G18KT 2SM -SNRA OVC008
     FM262300 03012KT 2SM -SN OVC008
     FM270500 35010KT 3SM -SN OVC008=

USA.gov is the U.S. government's official web portal to all federal, state and local government web resources and services.